Time;durP1;ratioP1;P1;durP2;ratioP2;P2;SDS_P1;SDS_P2;PMS_P1;PMS_P2;Temp;Humidity;BMP_temperature;BMP_pressure;BME280_temperature;BME280_humidity;BME280_pressure;Samples;Min_cycle;Max_cycle;Signal;HPM_P1;HPM_P2
2021/08/30 00:01:26;;;;;;;28.75;15.73;;;;;;;15.49;100.00;101920.09;5084838;28;20032;-67
2021/08/30 00:03:52;;;;;;;27.15;15.40;;;;;;;15.49;100.00;101920.09;5081417;28;20467;-71
2021/08/30 00:06:17;;;;;;;29.65;16.48;;;;;;;15.46;100.00;101920.97;5084005;28;20024;-67
2021/08/30 00:08:43;;;;;;;28.25;16.13;;;;;;;15.47;100.00;101927.22;5082796;28;20028;-70
2021/08/30 00:11:09;;;;;;;28.25;15.98;;;;;;;15.48;100.00;101915.69;5082765;28;20086;-72
2021/08/30 00:13:34;;;;;;;28.45;16.10;;;;;;;15.46;100.00;101920.97;5083770;28;20103;-72
2021/08/30 00:15:59;;;;;;;29.67;16.02;;;;;;;15.46;100.00;101925.44;5081216;28;20016;-67
2021/08/30 00:18:25;;;;;;;29.40;16.33;;;;;;;15.48;100.00;101923.69;5084790;28;20020;-70
2021/08/30 00:20:51;;;;;;;28.80;16.38;;;;;;;15.45;100.00;101919.22;5081043;28;20119;-73
2021/08/30 00:23:17;;;;;;;29.13;16.10;;;;;;;15.45;100.00;101919.22;5083421;28;20024;-71
2021/08/30 00:25:43;;;;;;;30.13;16.27;;;;;;;15.46;100.00;101920.09;5082813;28;20464;-73
2021/08/30 00:28:08;;;;;;;29.02;16.25;;;;;;;15.44;100.00;101917.44;5082221;28;20494;-71
2021/08/30 00:30:33;;;;;;;28.35;16.17;;;;;;;15.44;100.00;101911.22;5083610;28;20016;-72
2021/08/30 00:32:59;;;;;;;27.75;15.75;;;;;;;15.43;100.00;101914.78;5080715;28;20478;-72
2021/08/30 00:35:24;;;;;;;28.83;16.10;;;;;;;15.45;100.00;101915.66;5084468;28;20067;-73
2021/08/30 00:37:50;;;;;;;29.60;16.40;;;;;;;15.45;100.00;101919.22;5081436;28;20017;-73
2021/08/30 00:40:15;;;;;;;31.05;16.38;;;;;;;15.43;100.00;101917.44;5083497;28;20455;-66
2021/08/30 00:42:43;;;;;;;29.15;16.77;;;;;;;15.38;100.00;101920.09;5082411;28;20044;-71
2021/08/30 00:45:10;;;;;;;29.83;16.23;;;;;;;15.34;100.00;101911.19;5081949;28;20115;-72
2021/08/30 00:47:38;;;;;;;29.83;16.20;;;;;;;15.32;100.00;101917.44;5083297;28;20024;-71
2021/08/30 00:50:07;;;;;;;28.92;16.30;;;;;;;15.27;100.00;101927.19;5081130;28;20028;-72
2021/08/30 00:52:33;;;;;;;27.92;16.20;;;;;;;15.27;100.00;101920.06;5083237;28;20031;-70
2021/08/30 00:54:59;;;;;;;28.17;15.85;;;;;;;15.24;100.00;101925.41;5080669;28;20025;-71
2021/08/30 00:57:24;;;;;;;27.90;15.93;;;;;;;15.26;100.00;101917.41;5080473;28;20036;-63
2021/08/30 00:59:50;;;;;;;31.00;16.23;;;;;;;15.26;100.00;101914.75;5083548;28;20065;-60
2021/08/30 01:02:15;;;;;;;29.05;16.23;;;;;;;15.21;100.00;101920.06;5081856;28;20032;-63
2021/08/30 01:04:42;;;;;;;30.80;16.40;;;;;;;15.25;100.00;101921.84;5082139;28;20024;-64
2021/08/30 01:07:43;;;;;;;30.30;16.13;;;;;;;15.26;100.00;101923.63;5083094;28;20130;-63
2021/08/30 01:10:16;;;;;;;29.63;16.17;;;;;;;15.26;100.00;101923.63;5081335;28;20406;-64
2021/08/30 01:12:51;;;;;;;;;;;;;;;15.33;100.00;101933.44;5083024;28;20028;-64
2021/08/30 01:15:30;;;;;;;30.88;16.38;;;;;;;15.26;100.00;101938.72;5083031;28;20268;-63
2021/08/30 01:17:58;;;;;;;29.42;17.05;;;;;;;15.27;100.00;101940.50;5080894;28;20028;-64
2021/08/30 01:20:43;;;;;;;27.90;16.38;;;;;;;15.28;100.00;101935.19;5083766;28;20024;-62
2021/08/30 01:23:10;;;;;;;29.50;16.95;;;;;;;15.28;100.00;101929.84;5063201;28;20047;-64
2021/08/30 01:25:36;;;;;;;30.02;16.92;;;;;;;15.25;100.00;101927.19;5082719;28;20024;-61
2021/08/30 01:28:03;;;;;;;29.08;16.88;;;;;;;15.25;100.00;101935.16;5080702;28;20039;-60
2021/08/30 01:30:32;;;;;;;28.80;16.30;;;;;;;15.25;100.00;101934.28;5083919;28;20038;-61
2021/08/30 01:33:00;;;;;;;29.40;16.25;;;;;;;15.27;100.00;101940.50;5080220;28;20064;-60
2021/08/30 01:35:27;;;;;;;29.58;16.40;;;;;;;15.27;100.00;101935.16;5080460;28;20083;-60
2021/08/30 01:37:56;;;;;;;32.60;16.05;;;;;;;15.26;100.00;101938.72;5083427;28;20020;-59
2021/08/30 01:40:24;;;;;;;29.35;16.27;;;;;;;15.29;100.00;101938.72;5080714;28;20167;-61
2021/08/30 01:42:52;;;;;;;28.00;15.82;;;;;;;15.27;100.00;101941.38;5082848;28;20372;-73
2021/08/30 01:45:23;;;;;;;27.85;16.27;;;;;;;15.25;100.00;101937.84;5080933;28;20099;-72
2021/08/30 01:47:50;;;;;;;30.88;16.95;;;;;;;15.28;100.00;101945.81;5082897;28;20364;-68
2021/08/30 01:50:20;;;;;;;29.85;16.88;;;;;;;15.28;100.00;101935.19;5081236;28;20031;-69
2021/08/30 01:52:46;;;;;;;27.77;15.68;;;;;;;15.33;100.00;101940.50;5082291;28;20028;-72
2021/08/30 01:55:32;;;;;;;29.20;16.65;;;;;;;15.30;100.00;101946.75;5081600;28;20512;-72
2021/08/30 02:03:17;;;;;;;30.52;17.00;;;;;;;15.27;100.00;101938.72;5085199;28;20041;-70
2021/08/30 02:05:43;;;;;;;29.70;16.63;;;;;;;15.26;100.00;101930.72;5085210;28;20047;-71
2021/08/30 02:08:09;;;;;;;28.38;16.60;;;;;;;15.23;100.00;101936.97;5084850;28;20039;-71
2021/08/30 02:10:35;;;;;;;29.23;16.20;;;;;;;15.21;100.00;101936.03;5068105;28;20032;-72
2021/08/30 02:13:00;;;;;;;29.65;16.20;;;;;;;15.19;100.00;101936.91;5083494;28;20034;-72
2021/08/30 02:15:26;;;;;;;30.27;16.27;;;;;;;15.20;100.00;101939.59;5086744;28;20386;-72
2021/08/30 02:17:57;;;;;;;31.85;16.15;;;;;;;15.20;100.00;101939.59;5065744;28;20060;-72
2021/08/30 02:20:28;;;;;;;29.80;17.00;;;;;;;15.21;100.00;101937.84;5086700;28;20024;-70
2021/08/30 02:22:56;;;;;;;29.08;16.65;;;;;;;15.19;100.00;101934.25;5083140;28;20029;-71
2021/08/30 02:25:23;;;;;;;29.52;17.10;;;;;;;15.18;100.00;101928.06;5086092;28;20103;-72
2021/08/30 02:27:53;;;;;;;34.90;17.27;;;;;;;15.20;100.00;101934.25;5084093;28;20542;-71
2021/08/30 02:30:29;;;;;;;30.70;16.83;;;;;;;15.18;100.00;101936.03;5085673;28;20116;-68
2021/08/30 02:33:00;;;;;;;29.73;16.48;;;;;;;15.15;100.00;101931.59;5082705;28;20119;-69
2021/08/30 02:35:30;;;;;;;28.40;16.45;;;;;;;15.18;100.00;101928.06;5083569;28;20036;-68
2021/08/30 02:37:57;;;;;;;29.40;15.93;;;;;;;15.19;100.00;101927.19;5083181;28;20122;-68
2021/08/30 02:40:27;;;;;;;30.13;16.45;;;;;;;15.16;100.00;101927.16;5086306;28;20024;-69
2021/08/30 02:42:54;;;;;;;30.02;15.70;;;;;;;15.18;100.00;101929.84;5083037;28;20040;-67
2021/08/30 02:45:20;;;;;;;29.25;16.00;;;;;;;15.14;100.00;101932.50;5085802;28;20032;-71
2021/08/30 02:47:47;;;;;;;28.70;15.85;;;;;;;15.13;100.00;101921.81;5084472;28;20020;-68
2021/08/30 02:50:15;;;;;;;29.88;15.82;;;;;;;15.09;100.00;101926.25;5084282;28;20498;-72
2021/08/30 02:52:41;;;;;;;29.70;15.60;;;;;;;15.11;100.00;101931.59;5084624;28;20047;-70
2021/08/30 02:55:07;;;;;;;29.13;15.43;;;;;;;15.10;100.00;101937.78;5083469;28;20464;-71
2021/08/30 02:57:34;;;;;;;27.48;15.45;;;;;;;15.11;100.00;101928.91;5085543;28;20023;-72
2021/08/30 03:00:00;;;;;;;27.77;15.05;;;;;;;15.09;100.00;101936.91;5082455;28;20021;-69
2021/08/30 03:02:26;;;;;;;29.77;15.73;;;;;;;15.07;100.00;101937.78;5082402;28;20056;-70
2021/08/30 03:04:57;;;;;;;28.08;15.20;;;;;;;15.06;100.00;101925.38;5085260;28;20052;-72
2021/08/30 03:07:27;;;;;;;27.00;15.20;;;;;;;15.08;100.00;101932.44;5082597;28;20160;-71
2021/08/30 03:09:52;;;;;;;27.02;15.30;;;;;;;15.04;100.00;101927.13;5085551;28;20118;-69
2021/08/30 03:12:19;;;;;;;30.75;15.77;;;;;;;15.07;100.00;101916.47;5083056;28;20467;-64
2021/08/30 03:14:46;;;;;;;28.70;15.48;;;;;;;15.03;100.00;101920.00;5084037;28;20035;-64
2021/08/30 03:17:13;;;;;;;27.02;15.18;;;;;;;15.05;100.00;101918.25;5084267;28;20149;-64
2021/08/30 03:19:41;;;;;;;28.05;15.35;;;;;;;15.04;100.00;101911.16;5083362;28;20036;-60
2021/08/30 03:22:09;;;;;;;27.25;15.05;;;;;;;15.01;100.00;101924.44;5084886;28;20024;-60
2021/08/30 03:24:36;;;;;;;29.10;15.27;;;;;;;15.05;100.00;101919.13;5082601;28;20031;-60
2021/08/30 03:27:02;;;;;;;28.17;15.73;;;;;;;14.99;100.00;101912.00;5085122;28;20034;-59
2021/08/30 03:29:29;;;;;;;28.88;15.05;;;;;;;14.99;100.00;101912.00;5081909;28;20097;-60
2021/08/30 03:31:54;;;;;;;27.75;16.00;;;;;;;15.01;100.00;101914.69;5084943;28;20024;-60
2021/08/30 03:34:21;;;;;;;27.38;15.07;;;;;;;15.02;100.00;101926.25;5082383;28;20035;-61
2021/08/30 03:36:48;;;;;;;27.92;15.50;;;;;;;14.99;100.00;101917.34;5083807;28;20029;-60
2021/08/30 03:39:13;;;;;;;28.58;15.27;;;;;;;15.10;100.00;101916.47;5083627;28;20020;-60
2021/08/30 03:41:39;;;;;;;28.42;15.80;;;;;;;15.05;100.00;101915.59;5082555;28;20052;-61
2021/08/30 03:44:05;;;;;;;27.75;15.63;;;;;;;15.02;100.00;101913.81;5084464;28;20419;-60
2021/08/30 03:46:32;;;;;;;28.95;15.65;;;;;;;15.03;100.00;101925.34;5081590;28;20028;-59
2021/08/30 03:48:58;;;;;;;28.65;15.68;;;;;;;15.05;100.00;101918.25;5085162;28;20078;-60
2021/08/30 03:51:25;;;;;;;30.42;15.50;;;;;;;15.07;100.00;101922.72;5081595;28;20054;-60
2021/08/30 03:53:52;;;;;;;28.10;15.85;;;;;;;15.03;100.00;101920.91;5084233;28;20038;-61
2021/08/30 03:56:18;;;;;;;27.83;15.10;;;;;;;15.01;100.00;101924.44;5082267;28;20112;-60
2021/08/30 03:58:45;;;;;;;27.27;14.77;;;;;;;15.07;100.00;101922.72;5083194;28;20056;-60
2021/08/30 04:01:14;;;;;;;29.15;16.00;;;;;;;15.03;100.00;101925.34;5083341;28;20106;-60
2021/08/30 04:03:43;;;;;;;28.55;15.38;;;;;;;15.03;100.00;101914.69;5082309;28;20474;-60
2021/08/30 04:06:09;;;;;;;28.58;15.88;;;;;;;15.06;100.00;101922.72;5083740;28;20369;-60
2021/08/30 04:08:35;;;;;;;28.05;15.93;;;;;;;14.99;100.00;101912.00;5081992;28;20074;-72
2021/08/30 04:11:01;;;;;;;28.55;15.25;;;;;;;14.99;100.00;101903.16;5084618;28;20028;-72
2021/08/30 04:13:28;;;;;;;29.00;15.90;;;;;;;15.03;100.00;101904.03;5080983;28;20036;-72
2021/08/30 04:15:53;;;;;;;27.83;15.48;;;;;;;15.02;100.00;101904.94;5084319;28;20024;-71
2021/08/30 04:18:18;;;;;;;28.92;15.43;;;;;;;14.99;100.00;101912.00;5081611;28;20043;-72
2021/08/30 04:20:44;;;;;;;30.20;16.05;;;;;;;14.98;100.00;101901.38;5082538;28;20051;-71
2021/08/30 04:23:09;;;;;;;28.17;15.98;;;;;;;14.97;100.00;101903.16;5083463;28;20494;-72
2021/08/30 04:25:35;;;;;;;28.45;16.55;;;;;;;14.99;100.00;101906.69;5081377;28;20024;-72
2021/08/30 04:28:00;;;;;;;29.83;16.52;;;;;;;14.95;100.00;101907.56;5084653;28;20028;-71
2021/08/30 04:30:25;;;;;;;27.42;15.95;;;;;;;14.94;100.00;101904.91;5081202;28;20033;-72
2021/08/30 04:32:54;;;;;;;28.65;16.00;;;;;;;14.95;100.00;101904.91;5083111;28;20031;-72
2021/08/30 04:35:20;;;;;;;30.00;16.85;;;;;;;14.96;100.00;101911.13;5081724;28;20031;-71
2021/08/30 04:37:45;;;;;;;30.20;16.75;;;;;;;14.93;100.00;101914.66;5082845;28;20017;-72
2021/08/30 04:40:11;;;;;;;27.95;16.42;;;;;;;14.94;100.00;101912.88;5082910;28;20024;-72
2021/08/30 04:42:37;;;;;;;28.50;16.77;;;;;;;14.90;100.00;101914.66;5081414;28;20040;-72
2021/08/30 04:45:02;;;;;;;29.23;16.90;;;;;;;14.91;100.00;101913.78;5084062;28;20115;-72
2021/08/30 04:47:28;;;;;;;28.33;16.88;;;;;;;14.93;100.00;101919.13;5077554;28;20032;-72
2021/08/30 04:49:54;;;;;;;31.20;17.48;;;;;;;14.87;100.00;101919.97;5083909;28;20024;-71
2021/08/30 04:52:19;;;;;;;31.30;17.17;;;;;;;14.89;100.00;101920.84;5081047;28;20039;-69
2021/08/30 04:54:44;;;;;;;31.88;17.15;;;;;;;14.90;100.00;101919.97;5080300;28;20198;-71
2021/08/30 04:57:10;;;;;;;30.08;17.33;;;;;;;14.90;100.00;101927.09;5084266;28;20032;-61
2021/08/30 04:59:35;;;;;;;29.65;17.73;;;;;;;14.95;100.00;101922.66;5081111;28;20463;-60
2021/08/30 05:02:00;;;;;;;29.98;16.92;;;;;;;14.95;100.00;101934.19;5082953;28;20482;-62
2021/08/30 05:04:26;;;;;;;28.83;17.08;;;;;;;14.95;100.00;101934.19;5080986;28;20445;-61
2021/08/30 05:06:51;;;;;;;35.88;18.25;;;;;;;14.96;100.00;101935.97;5080765;28;20024;-60
2021/08/30 05:09:17;;;;;;;29.02;16.60;;;;;;;14.99;100.00;101938.63;5084022;28;20020;-60
2021/08/30 05:11:42;;;;;;;30.52;17.52;;;;;;;15.10;100.00;101937.78;5081238;28;20119;-61
2021/08/30 05:14:07;;;;;;;32.13;17.85;;;;;;;15.09;100.00;101944.00;5081411;28;20119;-60
2021/08/30 05:16:33;;;;;;;31.52;17.67;;;;;;;15.02;100.00;101931.56;5081982;28;20052;-60
2021/08/30 05:18:58;;;;;;;33.60;17.67;;;;;;;15.02;100.00;101935.09;5082877;28;20023;-61
2021/08/30 05:21:23;;;;;;;30.77;17.80;;;;;;;15.05;100.00;101936.91;5080577;28;20021;-62
2021/08/30 05:23:49;;;;;;;31.40;18.75;;;;;;;15.07;100.00;101941.34;5084185;28;20107;-62
2021/08/30 05:26:14;;;;;;;30.45;17.85;;;;;;;15.11;100.00;101944.91;5080738;28;20017;-66
2021/08/30 05:28:39;;;;;;;30.77;18.13;;;;;;;15.16;100.00;101944.03;5083090;28;20135;-65
2021/08/30 05:31:05;;;;;;;30.80;17.88;;;;;;;15.18;100.00;101943.16;5082879;28;20379;-59
2021/08/30 05:33:30;;;;;;;30.80;18.33;;;;;;;15.21;100.00;101941.38;5085428;28;20052;-60
2021/08/30 05:35:56;;;;;;;30.83;18.45;;;;;;;15.21;100.00;101936.03;5086650;28;20081;-60
2021/08/30 05:38:21;;;;;;;31.75;18.38;;;;;;;15.26;100.00;101944.03;5084510;28;20031;-60
2021/08/30 05:40:47;;;;;;;29.95;18.17;;;;;;;15.27;100.00;101952.03;5087327;28;20378;-61
2021/08/30 05:43:12;;;;;;;30.23;18.13;;;;;;;15.27;100.00;101951.16;5084201;28;20345;-69
2021/08/30 05:45:37;;;;;;;33.78;20.17;;;;;;;15.24;100.00;101954.69;5086361;28;20032;-69
2021/08/30 05:48:03;;;;;;;31.00;19.00;;;;;;;15.26;100.00;101955.59;5088183;28;20073;-61
2021/08/30 05:50:28;;;;;;;32.10;19.70;;;;;;;15.30;100.00;101961.81;5091793;28;20024;-59
2021/08/30 05:52:54;;;;;;;32.70;19.25;;;;;;;15.26;100.00;101957.34;5088239;28;20081;-60
2021/08/30 05:55:22;;;;;;;33.20;19.63;;;;;;;15.27;100.00;101962.69;5055198;28;20056;-59
2021/08/30 05:57:49;;;;;;;32.03;19.52;;;;;;;15.31;100.00;101961.81;5092339;28;20554;-60
2021/08/30 06:00:15;;;;;;;34.67;20.50;;;;;;;15.32;100.00;101960.94;5088879;28;20397;-60
2021/08/30 06:02:40;;;;;;;33.15;19.65;;;;;;;15.36;100.00;101960.94;5092207;28;20024;-59
2021/08/30 06:05:06;;;;;;;35.10;20.23;;;;;;;15.39;100.00;101961.84;5088116;28;20036;-59
2021/08/30 06:07:32;;;;;;;34.70;20.50;;;;;;;15.38;100.00;101957.41;5087819;28;20036;-60
2021/08/30 06:09:57;;;;;;;34.67;20.63;;;;;;;15.41;100.00;101962.72;5087376;28;20383;-61
2021/08/30 06:12:23;;;;;;;34.95;20.65;;;;;;;15.44;100.00;101964.53;5087964;28;20149;-59
2021/08/30 06:14:48;;;;;;;35.47;21.50;;;;;;;15.48;100.00;101961.84;5092531;28;20028;-59
2021/08/30 06:17:13;;;;;;;36.58;21.02;;;;;;;15.54;100.00;101971.66;5089371;28;20024;-60
2021/08/30 06:19:39;;;;;;;36.75;21.67;;;;;;;15.56;100.00;101963.66;5091105;28;20040;-60
2021/08/30 06:22:07;;;;;;;33.80;20.58;;;;;;;15.60;100.00;101968.09;5057570;28;20028;-59
2021/08/30 06:24:32;;;;;;;36.72;21.73;;;;;;;15.59;100.00;101967.19;5091638;28;20463;-59
2021/08/30 06:26:58;;;;;;;35.17;21.17;;;;;;;15.64;100.00;101975.19;5087223;28;20036;-59
2021/08/30 06:29:23;;;;;;;35.78;22.05;;;;;;;15.71;100.00;101979.63;5090616;28;20008;-59
2021/08/30 06:31:49;;;;;;;39.20;21.27;;;;;;;15.79;100.00;101974.38;5087546;28;20043;-60
2021/08/30 06:34:14;;;;;;;36.05;21.50;;;;;;;15.84;100.00;101978.81;5086411;28;20371;-59
2021/08/30 06:36:39;;;;;;;35.30;20.98;;;;;;;15.82;100.00;101966.38;5087472;28;20032;-60
2021/08/30 06:39:05;;;;;;;35.80;22.38;;;;;;;15.86;100.00;101968.16;5088225;28;20081;-59
2021/08/30 06:41:30;;;;;;;36.95;22.65;;;;;;;15.85;100.00;101972.56;5092035;28;20797;-60
2021/08/30 06:43:56;;;;;;;35.58;21.30;;;;;;;15.92;100.00;101975.28;5090187;28;20027;-59
2021/08/30 06:46:21;;;;;;;36.55;21.23;;;;;;;15.93;100.00;101967.28;5089185;28;20425;-60
2021/08/30 06:48:47;;;;;;;34.45;21.25;;;;;;;15.96;100.00;101969.94;5089082;28;20379;-59
2021/08/30 06:51:12;;;;;;;34.13;20.75;;;;;;;16.01;100.00;101969.91;5088413;28;20414;-59
2021/08/30 06:53:39;;;;;;;34.53;21.23;;;;;;;16.00;100.00;101968.13;5086834;28;20421;-59
2021/08/30 06:56:05;;;;;;;34.13;20.83;;;;;;;16.00;100.00;101976.13;5086854;28;20099;-59
2021/08/30 06:58:31;;;;;;;35.35;20.92;;;;;;;15.95;100.00;101978.81;5087476;28;20028;-60
2021/08/30 07:00:56;;;;;;;36.03;22.05;;;;;;;15.96;100.00;101972.59;5090398;28;20032;-60
2021/08/30 07:03:21;;;;;;;35.95;22.60;;;;;;;15.95;100.00;101967.25;5088537;28;20038;-60
2021/08/30 07:05:47;;;;;;;36.05;22.15;;;;;;;16.02;100.00;101967.25;5086869;28;20051;-60
2021/08/30 07:08:12;;;;;;;36.33;22.40;;;;;;;16.09;100.00;101969.91;5087295;28;20115;-60
2021/08/30 07:10:37;;;;;;;34.40;20.75;;;;;;;16.04;100.00;101967.25;5085730;28;20032;-59
2021/08/30 07:13:03;;;;;;;35.10;21.63;;;;;;;16.02;100.00;101969.91;5066817;28;20078;-59
2021/08/30 07:15:28;;;;;;;36.05;21.88;;;;;;;16.01;100.00;101964.59;5087924;28;20474;-59
2021/08/30 07:17:54;;;;;;;35.38;22.70;;;;;;;16.00;100.00;101971.72;5085747;28;20107;-59
2021/08/30 07:20:19;;;;;;;35.38;21.48;;;;;;;16.04;100.00;101960.13;5086852;28;20043;-60
2021/08/30 07:22:44;;;;;;;36.60;22.05;;;;;;;16.09;100.00;101967.25;5090070;28;20023;-59
2021/08/30 07:25:10;;;;;;;35.22;21.50;;;;;;;16.16;100.00;101967.25;5089278;28;20114;-60
2021/08/30 07:27:36;;;;;;;33.30;22.02;;;;;;;16.19;100.00;101967.25;5085117;28;20028;-59
2021/08/30 07:30:03;;;;;;;37.30;22.90;;;;;;;16.29;100.00;101970.78;5091663;28;20078;-61
2021/08/30 07:32:28;;;;;;;34.53;21.30;;;;;;;16.42;100.00;101968.09;5089977;28;20028;-60
2021/08/30 07:34:53;;;;;;;35.47;21.85;;;;;;;16.56;100.00;101968.94;5083513;28;20027;-60
2021/08/30 07:37:19;;;;;;;38.78;22.02;;;;;;;16.70;100.00;101974.22;5085164;28;20044;-60
2021/08/30 07:39:44;;;;;;;37.15;21.50;;;;;;;16.83;100.00;101980.44;5089562;28;20031;-60
2021/08/30 07:42:09;;;;;;;38.47;22.67;;;;;;;16.93;100.00;101976.84;5090747;28;20048;-60
2021/08/30 07:44:35;;;;;;;35.22;21.23;;;;;;;17.03;100.00;101977.72;5072151;28;20043;-59
2021/08/30 07:47:00;;;;;;;35.92;21.98;;;;;;;17.11;100.00;101983.00;5085182;28;20027;-60
2021/08/30 07:49:25;;;;;;;33.47;20.70;;;;;;;17.20;100.00;101978.50;5071159;28;20035;-60
2021/08/30 07:51:51;;;;;;;34.80;21.17;;;;;;;17.30;100.00;101984.72;5089679;28;20023;-60
2021/08/30 07:54:16;;;;;;;34.60;20.58;;;;;;;17.45;98.59;101980.16;5086272;28;20457;-59
2021/08/30 07:56:42;;;;;;;34.20;21.33;;;;;;;17.57;99.21;101988.09;5088181;28;20035;-64
2021/08/30 07:59:08;;;;;;;33.30;20.35;;;;;;;17.62;97.88;101986.28;5087992;28;20040;-63
2021/08/30 08:01:34;;;;;;;31.73;20.30;;;;;;;17.75;97.33;101985.28;5088504;28;20031;-65
2021/08/30 08:04:00;;;;;;;32.63;20.52;;;;;;;17.73;95.04;101992.44;5090208;28;20103;-64
2021/08/30 08:06:25;;;;;;;32.28;19.55;;;;;;;17.80;96.01;101992.41;5088421;28;20024;-64
2021/08/30 08:08:50;;;;;;;32.80;20.60;;;;;;;17.83;95.40;101993.25;5080837;28;20077;-64
2021/08/30 08:11:16;;;;;;;33.17;19.95;;;;;;;17.78;95.48;101990.63;5063079;28;20035;-62
2021/08/30 08:13:41;;;;;;;32.90;20.73;;;;;;;17.81;95.37;101988.81;5083694;28;20185;-64
2021/08/30 08:16:07;;;;;;;33.80;20.85;;;;;;;17.86;94.81;101989.69;5080886;28;20025;-64
2021/08/30 08:18:33;;;;;;;34.30;21.10;;;;;;;17.88;93.01;101995.88;5083814;28;20023;-61
2021/08/30 08:21:01;;;;;;;32.83;19.70;;;;;;;17.95;93.99;101994.97;5083136;28;20032;-71
2021/08/30 08:23:26;;;;;;;34.13;20.67;;;;;;;18.09;91.73;101990.41;5085844;28;20489;-61
2021/08/30 08:25:52;;;;;;;34.63;20.70;;;;;;;18.24;90.19;101993.84;5080818;28;20031;-62
2021/08/30 08:28:17;;;;;;;31.05;19.88;;;;;;;18.34;88.17;101995.53;5063202;28;20039;-61
2021/08/30 08:30:42;;;;;;;34.28;21.00;;;;;;;18.54;91.07;101992.66;5084423;28;20023;-64
2021/08/30 08:33:08;;;;;;;31.52;19.70;;;;;;;18.80;87.11;101989.66;5080754;28;20032;-64
2021/08/30 08:35:34;;;;;;;32.33;18.83;;;;;;;18.93;85.15;101997.56;5083684;28;20028;-65
2021/08/30 08:37:59;;;;;;;31.20;19.23;;;;;;;19.11;83.93;102001.84;5082050;28;20028;-64
2021/08/30 08:40:24;;;;;;;31.30;18.92;;;;;;;19.27;84.60;102003.41;5082562;28;20455;-69
2021/08/30 08:42:50;;;;;;;32.78;19.00;;;;;;;19.55;81.62;102004.81;5082622;28;20056;-61
2021/08/30 08:45:17;;;;;;;32.63;18.95;;;;;;;19.84;80.84;102001.69;5081282;28;20414;-65
2021/08/30 08:47:43;;;;;;;31.77;19.17;;;;;;;20.24;78.11;101995.69;5084061;28;20020;-66
2021/08/30 08:50:11;;;;;;;30.65;18.88;;;;;;;20.36;77.03;101999.94;5080877;28;20024;-71
2021/08/30 08:52:43;;;;;;;32.22;18.77;;;;;;;20.16;78.22;101998.47;5084190;28;20034;-68
2021/08/30 08:55:10;;;;;;;28.77;17.47;;;;;;;19.93;76.99;101996.19;5080750;28;20029;-67
2021/08/30 08:57:36;;;;;;;30.35;18.02;;;;;;;19.64;79.29;101999.28;5083941;28;20085;-69
2021/08/30 09:00:06;;;;;;;31.92;18.33;;;;;;;19.38;80.16;102005.03;5081490;28;20024;-70
2021/08/30 09:02:34;;;;;;;29.85;18.42;;;;;;;19.31;80.54;102005.13;5083174;28;20479;-65
2021/08/30 09:05:00;;;;;;;30.08;17.60;;;;;;;19.43;80.75;102011.25;5082592;28;20048;-65
2021/08/30 09:07:36;;;;;;;29.25;18.10;;;;;;;19.79;79.89;102004.47;5086521;28;20077;-67
2021/08/30 09:10:03;;;;;;;30.20;18.25;;;;;;;20.26;76.38;101993.84;5085696;28;20043;-67
2021/08/30 09:12:28;;;;;;;29.58;17.55;;;;;;;20.98;72.14;101998.75;5086470;28;20099;-67
2021/08/30 09:14:54;;;;;;;27.95;16.50;;;;;;;21.13;71.23;101993.06;5086198;28;20107;-69
2021/08/30 09:17:20;;;;;;;27.73;16.20;;;;;;;21.33;70.80;101999.78;5085670;28;20046;-61
2021/08/30 09:19:46;;;;;;;28.70;15.57;;;;;;;22.18;66.84;101987.88;5087335;28;20036;-62
2021/08/30 09:22:13;;;;;;;28.08;15.73;;;;;;;22.16;65.99;101994.22;5084503;28;20066;-63
2021/08/30 09:24:39;;;;;;;28.00;14.95;;;;;;;21.81;66.33;101986.13;5084418;28;20043;-61
2021/08/30 09:27:08;;;;;;;26.75;14.50;;;;;;;21.67;66.70;101982.88;5087604;28;20447;-59
2021/08/30 09:29:35;;;;;;;26.70;14.73;;;;;;;21.75;66.51;101981.78;5093018;28;20035;-61
2021/08/30 09:32:10;;;;;;;26.88;15.02;;;;;;;22.02;67.36;101983.81;5088827;28;20027;-70
2021/08/30 09:34:57;;;;;;;27.10;15.02;;;;;;;21.97;66.86;101985.75;5086143;28;20039;-69
2021/08/30 09:37:25;;;;;;;26.75;14.95;;;;;;;22.24;66.80;101985.03;5091217;28;20020;-71
2021/08/30 09:39:55;;;;;;;27.02;14.95;;;;;;;22.73;65.26;101981.94;5085674;28;20032;-69
2021/08/30 09:42:21;;;;;;;27.55;14.80;;;;;;;23.01;63.53;101992.81;5091605;28;20032;-61
2021/08/30 09:44:47;;;;;;;28.35;15.57;;;;;;;22.90;62.13;101978.75;5090682;28;20063;-68
2021/08/30 09:47:18;;;;;;;27.25;14.60;;;;;;;22.78;63.73;101988.09;5091277;28;20427;-62
2021/08/30 09:49:48;;;;;;;27.52;14.80;;;;;;;22.81;64.63;101988.88;5072042;28;20024;-71
2021/08/30 09:52:13;;;;;;;27.35;14.80;;;;;;;23.13;62.21;101980.78;5087126;28;20024;-68
2021/08/30 09:54:39;;;;;;;27.13;14.48;;;;;;;23.05;62.67;101985.50;5091245;28;20374;-69
2021/08/30 09:57:05;;;;;;;26.88;15.10;;;;;;;22.95;61.96;101983.09;5086762;28;20017;-70
2021/08/30 09:59:30;;;;;;;26.42;14.95;;;;;;;22.57;61.91;101984.16;5093106;28;20020;-69
2021/08/30 10:02:00;;;;;;;26.73;14.27;;;;;;;22.37;64.26;101985.63;5087326;28;20329;-68
2021/08/30 10:04:26;;;;;;;27.33;14.82;;;;;;;;;;5090291;28;20057;-68
2021/08/30 10:06:53;;;;;;;25.42;14.25;;;;;;;22.61;63.43;101978.66;5088057;28;20028;-67
2021/08/30 10:09:19;;;;;;;25.90;14.25;;;;;;;23.07;61.54;101986.34;5089407;28;20040;-67
2021/08/30 10:11:46;;;;;;;26.15;14.05;;;;;;;23.09;60.21;101987.16;5089727;28;20031;-68
2021/08/30 10:14:16;;;;;;;26.55;13.75;;;;;;;22.98;61.14;101983.00;5093027;28;20028;-67
2021/08/30 10:16:43;;;;;;;24.35;13.60;;;;;;;23.05;61.03;101982.78;5090077;28;20387;-68
2021/08/30 10:19:08;;;;;;;26.25;14.10;;;;;;;23.55;59.83;101983.09;5090871;28;20501;-68
2021/08/30 10:21:44;;;;;;;23.98;13.07;;;;;;;24.55;56.95;101976.06;5090643;28;20059;-70
2021/08/30 10:24:12;;;;;;;26.63;14.23;;;;;;;23.87;56.11;101983.88;5088537;28;20024;-68
2021/08/30 10:26:40;;;;;;;24.92;13.35;;;;;;;23.04;59.33;101979.22;5086990;28;20028;-68
2021/08/30 10:29:06;;;;;;;25.90;13.77;;;;;;;22.36;61.13;101978.47;5091015;28;20027;-67
2021/08/30 10:31:31;;;;;;;26.02;14.15;;;;;;;21.96;63.44;101978.59;5085316;28;20020;-69
2021/08/30 10:33:58;;;;;;;25.60;14.40;;;;;;;21.80;65.16;101987.06;5082716;28;20034;-72
2021/08/30 10:36:26;;;;;;;25.70;13.93;;;;;;;21.72;65.47;101986.34;5086280;28;20052;-69
2021/08/30 10:39:06;;;;;;;26.65;14.23;;;;;;;21.90;65.17;101977.84;5082693;28;20371;-72
2021/08/30 10:41:37;;;;;;;25.23;13.98;;;;;;;22.51;64.20;101974.44;5082130;28;20024;-71
2021/08/30 10:44:13;;;;;;;24.73;12.70;;;;;;;24.41;59.73;101976.59;5082962;28;20020;-65
2021/08/30 10:46:53;;;;;;;26.92;13.10;;;;;;;26.79;52.43;101970.59;5084413;28;20484;-63
2021/08/30 10:49:32;;;;;;;23.73;11.95;;;;;;;26.91;49.22;101981.78;5082757;28;20043;-66
2021/08/30 10:52:11;;;;;;;24.58;12.68;;;;;;;26.12;51.31;101976.28;5083101;28;20052;-62
2021/08/30 10:54:36;;;;;;;24.90;12.20;;;;;;;25.18;53.85;101981.84;5083606;28;20024;-66
2021/08/30 10:57:03;;;;;;;26.00;12.27;;;;;;;24.69;56.02;101978.31;5085866;28;20158;-62
2021/08/30 10:59:30;;;;;;;25.05;12.25;;;;;;;24.40;56.39;101979.34;5082609;28;20032;-62
2021/08/30 11:01:59;;;;;;;25.05;11.82;;;;;;;23.94;56.41;101980.03;5085819;28;20016;-66
2021/08/30 11:04:33;;;;;;;24.65;12.27;;;;;;;23.46;58.17;101976.16;5082498;28;20099;-70
2021/08/30 11:07:00;;;;;;;24.45;12.63;;;;;;;22.91;59.66;101976.00;5082157;28;20028;-69
2021/08/30 11:09:26;;;;;;;25.20;12.57;;;;;;;22.68;60.34;101975.81;5085570;28;20044;-67